sensor_id;sensor_type;location;lat;lon;timestamp;P1;durP1;ratioP1;P2;durP2;ratioP2
17451;SDS011;8843;48.838;9.324;2022-08-19T00:01:47;10.33;;;9.33;;
17451;SDS011;8843;48.838;9.324;2022-08-19T00:04:18;9.47;;;8.27;;
17451;SDS011;8843;48.838;9.324;2022-08-19T00:06:46;11.67;;;8.00;;
17451;SDS011;8843;48.838;9.324;2022-08-19T00:09:16;9.77;;;8.87;;
17451;SDS011;8843;48.838;9.324;2022-08-19T00:11:46;10.90;;;9.80;;
17451;SDS011;8843;48.838;9.324;2022-08-19T00:14:14;10.53;;;9.43;;
17451;SDS011;8843;48.838;9.324;2022-08-19T00:16:43;9.13;;;8.23;;
17451;SDS011;8843;48.838;9.324;2022-08-19T00:19:12;11.23;;;10.10;;
17451;SDS011;8843;48.838;9.324;2022-08-19T00:21:41;10.27;;;9.30;;
17451;SDS011;8843;48.838;9.324;2022-08-19T00:24:09;10.77;;;9.67;;
17451;SDS011;8843;48.838;9.324;2022-08-19T00:26:39;11.50;;;10.33;;
17451;SDS011;8843;48.838;9.324;2022-08-19T00:29:07;10.13;;;9.03;;
17451;SDS011;8843;48.838;9.324;2022-08-19T00:31:36;11.07;;;9.97;;
17451;SDS011;8843;48.838;9.324;2022-08-19T00:34:03;11.77;;;10.57;;
17451;SDS011;8843;48.838;9.324;2022-08-19T00:36:30;10.17;;;9.10;;
17451;SDS011;8843;48.838;9.324;2022-08-19T00:38:59;11.67;;;10.53;;
17451;SDS011;8843;48.838;9.324;2022-08-19T00:41:27;12.30;;;10.97;;
17451;SDS011;8843;48.838;9.324;2022-08-19T00:44:01;11.23;;;9.80;;
17451;SDS011;8843;48.838;9.324;2022-08-19T00:46:29;11.77;;;10.37;;
17451;SDS011;8843;48.838;9.324;2022-08-19T00:48:57;10.37;;;9.30;;
17451;SDS011;8843;48.838;9.324;2022-08-19T00:51:26;12.37;;;10.87;;
17451;SDS011;8843;48.838;9.324;2022-08-19T00:53:55;11.87;;;10.70;;
17451;SDS011;8843;48.838;9.324;2022-08-19T00:56:25;12.90;;;11.57;;
17451;SDS011;8843;48.838;9.324;2022-08-19T00:58:53;12.53;;;11.10;;
17451;SDS011;8843;48.838;9.324;2022-08-19T01:01:22;12.87;;;10.43;;
17451;SDS011;8843;48.838;9.324;2022-08-19T01:03:49;11.63;;;10.50;;
17451;SDS011;8843;48.838;9.324;2022-08-19T01:06:16;11.10;;;9.90;;
17451;SDS011;8843;48.838;9.324;2022-08-19T01:08:43;10.67;;;9.17;;
17451;SDS011;8843;48.838;9.324;2022-08-19T01:11:10;13.03;;;10.60;;
17451;SDS011;8843;48.838;9.324;2022-08-19T01:13:39;12.97;;;10.07;;
17451;SDS011;8843;48.838;9.324;2022-08-19T01:16:08;11.70;;;10.50;;
17451;SDS011;8843;48.838;9.324;2022-08-19T01:18:38;16.63;;;11.37;;
17451;SDS011;8843;48.838;9.324;2022-08-19T01:21:08;12.23;;;10.97;;
17451;SDS011;8843;48.838;9.324;2022-08-19T01:23:42;11.20;;;10.10;;
17451;SDS011;8843;48.838;9.324;2022-08-19T01:26:10;12.93;;;10.40;;
17451;SDS011;8843;48.838;9.324;2022-08-19T01:28:39;11.00;;;9.90;;
17451;SDS011;8843;48.838;9.324;2022-08-19T01:31:08;12.70;;;10.77;;
17451;SDS011;8843;48.838;9.324;2022-08-19T01:33:37;12.20;;;10.67;;
17451;SDS011;8843;48.838;9.324;2022-08-19T01:36:08;11.93;;;10.67;;
17451;SDS011;8843;48.838;9.324;2022-08-19T01:38:38;11.33;;;10.13;;
17451;SDS011;8843;48.838;9.324;2022-08-19T01:41:09;11.33;;;10.13;;
17451;SDS011;8843;48.838;9.324;2022-08-19T01:43:37;12.53;;;11.20;;
17451;SDS011;8843;48.838;9.324;2022-08-19T01:46:04;12.23;;;11.00;;
17451;SDS011;8843;48.838;9.324;2022-08-19T01:48:35;12.27;;;10.93;;
17451;SDS011;8843;48.838;9.324;2022-08-19T01:51:03;13.67;;;11.37;;
17451;SDS011;8843;48.838;9.324;2022-08-19T01:53:30;10.60;;;9.60;;
17451;SDS011;8843;48.838;9.324;2022-08-19T01:55:57;11.57;;;10.37;;
17451;SDS011;8843;48.838;9.324;2022-08-19T01:58:26;12.03;;;10.43;;
17451;SDS011;8843;48.838;9.324;2022-08-19T02:00:56;11.50;;;10.10;;
17451;SDS011;8843;48.838;9.324;2022-08-19T02:03:24;12.20;;;10.90;;
17451;SDS011;8843;48.838;9.324;2022-08-19T02:05:54;12.07;;;10.77;;
17451;SDS011;8843;48.838;9.324;2022-08-19T02:08:22;11.57;;;9.83;;
17451;SDS011;8843;48.838;9.324;2022-08-19T02:10:49;11.50;;;9.37;;
17451;SDS011;8843;48.838;9.324;2022-08-19T02:13:16;11.87;;;10.67;;
17451;SDS011;8843;48.838;9.324;2022-08-19T02:15:45;12.20;;;10.83;;
17451;SDS011;8843;48.838;9.324;2022-08-19T02:18:12;13.70;;;11.00;;
17451;SDS011;8843;48.838;9.324;2022-08-19T02:20:40;13.50;;;11.53;;
17451;SDS011;8843;48.838;9.324;2022-08-19T02:23:08;11.93;;;10.70;;
17451;SDS011;8843;48.838;9.324;2022-08-19T02:25:35;14.33;;;12.03;;
17451;SDS011;8843;48.838;9.324;2022-08-19T02:28:03;11.83;;;10.30;;
17451;SDS011;8843;48.838;9.324;2022-08-19T02:30:30;13.73;;;11.87;;
17451;SDS011;8843;48.838;9.324;2022-08-19T02:32:58;11.93;;;10.43;;
17451;SDS011;8843;48.838;9.324;2022-08-19T02:35:25;17.23;;;12.57;;
17451;SDS011;8843;48.838;9.324;2022-08-19T02:37:52;15.97;;;11.63;;
17451;SDS011;8843;48.838;9.324;2022-08-19T02:40:37;13.27;;;11.80;;
17451;SDS011;8843;48.838;9.324;2022-08-19T02:43:04;13.90;;;11.47;;
17451;SDS011;8843;48.838;9.324;2022-08-19T02:45:34;13.57;;;11.80;;
17451;SDS011;8843;48.838;9.324;2022-08-19T02:48:04;15.40;;;12.40;;
17451;SDS011;8843;48.838;9.324;2022-08-19T02:50:30;14.07;;;11.23;;
17451;SDS011;8843;48.838;9.324;2022-08-19T02:52:58;15.57;;;12.20;;
17451;SDS011;8843;48.838;9.324;2022-08-19T02:55:24;15.17;;;12.10;;
17451;SDS011;8843;48.838;9.324;2022-08-19T02:57:51;14.87;;;12.30;;
17451;SDS011;8843;48.838;9.324;2022-08-19T03:00:19;14.17;;;12.67;;
17451;SDS011;8843;48.838;9.324;2022-08-19T03:02:46;15.40;;;12.33;;
17451;SDS011;8843;48.838;9.324;2022-08-19T03:05:15;14.83;;;12.27;;
17451;SDS011;8843;48.838;9.324;2022-08-19T03:07:42;16.10;;;12.87;;
17451;SDS011;8843;48.838;9.324;2022-08-19T03:10:09;18.00;;;13.60;;
17451;SDS011;8843;48.838;9.324;2022-08-19T03:12:36;15.63;;;12.60;;
17451;SDS011;8843;48.838;9.324;2022-08-19T03:15:05;15.67;;;12.73;;
17451;SDS011;8843;48.838;9.324;2022-08-19T03:17:32;13.60;;;11.73;;
17451;SDS011;8843;48.838;9.324;2022-08-19T03:19:59;17.23;;;13.67;;
17451;SDS011;8843;48.838;9.324;2022-08-19T03:22:28;18.60;;;13.93;;
17451;SDS011;8843;48.838;9.324;2022-08-19T03:24:55;14.83;;;12.20;;
17451;SDS011;8843;48.838;9.324;2022-08-19T03:27:22;14.17;;;12.57;;
17451;SDS011;8843;48.838;9.324;2022-08-19T03:29:49;13.97;;;11.80;;
17451;SDS011;8843;48.838;9.324;2022-08-19T03:32:16;14.77;;;12.80;;
17451;SDS011;8843;48.838;9.324;2022-08-19T03:34:43;17.13;;;12.03;;
17451;SDS011;8843;48.838;9.324;2022-08-19T03:37:10;14.73;;;12.67;;
17451;SDS011;8843;48.838;9.324;2022-08-19T03:39:40;15.67;;;11.73;;
17451;SDS011;8843;48.838;9.324;2022-08-19T03:42:07;15.63;;;13.57;;
17451;SDS011;8843;48.838;9.324;2022-08-19T03:44:35;12.60;;;10.90;;
17451;SDS011;8843;48.838;9.324;2022-08-19T03:47:02;16.87;;;13.63;;
17451;SDS011;8843;48.838;9.324;2022-08-19T03:49:30;13.60;;;11.50;;
17451;SDS011;8843;48.838;9.324;2022-08-19T03:52:00;15.17;;;12.97;;
17451;SDS011;8843;48.838;9.324;2022-08-19T03:54:27;12.70;;;10.73;;
17451;SDS011;8843;48.838;9.324;2022-08-19T03:56:56;14.77;;;12.07;;
17451;SDS011;8843;48.838;9.324;2022-08-19T03:59:24;16.67;;;13.43;;
17451;SDS011;8843;48.838;9.324;2022-08-19T04:01:53;17.07;;;14.13;;
17451;SDS011;8843;48.838;9.324;2022-08-19T04:04:21;13.40;;;11.17;;
17451;SDS011;8843;48.838;9.324;2022-08-19T04:06:48;16.30;;;13.70;;
17451;SDS011;8843;48.838;9.324;2022-08-19T04:09:16;16.63;;;13.60;;
17451;SDS011;8843;48.838;9.324;2022-08-19T04:11:45;14.93;;;12.70;;
17451;SDS011;8843;48.838;9.324;2022-08-19T04:14:16;15.10;;;13.23;;
17451;SDS011;8843;48.838;9.324;2022-08-19T04:16:44;14.90;;;12.53;;
17451;SDS011;8843;48.838;9.324;2022-08-19T04:19:12;15.40;;;13.73;;
17451;SDS011;8843;48.838;9.324;2022-08-19T04:21:40;16.50;;;13.70;;
17451;SDS011;8843;48.838;9.324;2022-08-19T04:24:10;14.23;;;12.17;;
17451;SDS011;8843;48.838;9.324;2022-08-19T04:26:37;14.83;;;13.20;;
17451;SDS011;8843;48.838;9.324;2022-08-19T04:29:05;18.03;;;13.13;;
17451;SDS011;8843;48.838;9.324;2022-08-19T04:31:34;18.20;;;14.30;;
17451;SDS011;8843;48.838;9.324;2022-08-19T04:34:02;15.70;;;13.30;;
17451;SDS011;8843;48.838;9.324;2022-08-19T04:36:32;17.40;;;14.73;;
17451;SDS011;8843;48.838;9.324;2022-08-19T04:39:01;15.50;;;13.23;;
17451;SDS011;8843;48.838;9.324;2022-08-19T04:41:31;14.93;;;13.03;;
17451;SDS011;8843;48.838;9.324;2022-08-19T04:44:16;17.27;;;14.50;;
17451;SDS011;8843;48.838;9.324;2022-08-19T04:46:45;19.03;;;15.10;;
17451;SDS011;8843;48.838;9.324;2022-08-19T04:49:14;17.03;;;14.87;;
17451;SDS011;8843;48.838;9.324;2022-08-19T04:51:42;15.87;;;14.17;;
17451;SDS011;8843;48.838;9.324;2022-08-19T04:54:12;16.60;;;13.80;;
17451;SDS011;8843;48.838;9.324;2022-08-19T04:56:40;17.10;;;13.67;;
17451;SDS011;8843;48.838;9.324;2022-08-19T04:59:07;16.30;;;14.03;;
17451;SDS011;8843;48.838;9.324;2022-08-19T05:01:35;16.00;;;13.93;;
17451;SDS011;8843;48.838;9.324;2022-08-19T05:04:04;18.43;;;13.93;;
17451;SDS011;8843;48.838;9.324;2022-08-19T05:06:32;16.27;;;13.73;;
17451;SDS011;8843;48.838;9.324;2022-08-19T05:09:00;16.27;;;13.90;;
17451;SDS011;8843;48.838;9.324;2022-08-19T05:11:28;16.77;;;14.43;;
17451;SDS011;8843;48.838;9.324;2022-08-19T05:13:57;18.77;;;16.03;;
17451;SDS011;8843;48.838;9.324;2022-08-19T05:16:24;19.03;;;14.40;;
17451;SDS011;8843;48.838;9.324;2022-08-19T05:18:52;19.07;;;14.67;;
17451;SDS011;8843;48.838;9.324;2022-08-19T05:21:39;15.90;;;14.27;;
17451;SDS011;8843;48.838;9.324;2022-08-19T05:24:25;18.27;;;15.03;;
17451;SDS011;8843;48.838;9.324;2022-08-19T05:26:53;17.80;;;15.77;;
17451;SDS011;8843;48.838;9.324;2022-08-19T05:29:23;18.23;;;15.27;;
17451;SDS011;8843;48.838;9.324;2022-08-19T05:31:51;19.77;;;13.43;;
17451;SDS011;8843;48.838;9.324;2022-08-19T05:34:19;20.90;;;15.53;;
17451;SDS011;8843;48.838;9.324;2022-08-19T05:36:51;18.33;;;14.00;;
17451;SDS011;8843;48.838;9.324;2022-08-19T05:39:22;16.93;;;14.30;;
17451;SDS011;8843;48.838;9.324;2022-08-19T05:41:51;18.63;;;15.70;;
17451;SDS011;8843;48.838;9.324;2022-08-19T05:44:22;16.80;;;14.30;;
17451;SDS011;8843;48.838;9.324;2022-08-19T05:46:49;16.70;;;14.53;;
17451;SDS011;8843;48.838;9.324;2022-08-19T05:49:19;18.27;;;14.40;;
17451;SDS011;8843;48.838;9.324;2022-08-19T05:51:47;17.40;;;14.47;;
17451;SDS011;8843;48.838;9.324;2022-08-19T05:54:16;17.07;;;14.43;;
17451;SDS011;8843;48.838;9.324;2022-08-19T05:56:44;22.23;;;16.17;;
17451;SDS011;8843;48.838;9.324;2022-08-19T05:59:13;17.93;;;14.93;;
17451;SDS011;8843;48.838;9.324;2022-08-19T06:01:43;21.93;;;16.60;;
17451;SDS011;8843;48.838;9.324;2022-08-19T06:04:15;22.20;;;15.93;;
17451;SDS011;8843;48.838;9.324;2022-08-19T06:06:44;19.90;;;16.03;;
17451;SDS011;8843;48.838;9.324;2022-08-19T06:09:11;17.40;;;14.93;;
17451;SDS011;8843;48.838;9.324;2022-08-19T06:11:41;20.10;;;15.77;;
17451;SDS011;8843;48.838;9.324;2022-08-19T06:14:10;20.03;;;14.87;;
17451;SDS011;8843;48.838;9.324;2022-08-19T06:16:40;19.37;;;16.03;;
17451;SDS011;8843;48.838;9.324;2022-08-19T06:19:09;18.80;;;16.67;;
17451;SDS011;8843;48.838;9.324;2022-08-19T06:21:39;21.57;;;15.83;;
17451;SDS011;8843;48.838;9.324;2022-08-19T06:24:09;20.03;;;16.70;;
17451;SDS011;8843;48.838;9.324;2022-08-19T06:26:38;21.57;;;16.30;;
17451;SDS011;8843;48.838;9.324;2022-08-19T06:29:08;20.03;;;16.37;;
17451;SDS011;8843;48.838;9.324;2022-08-19T06:31:36;22.17;;;15.40;;
17451;SDS011;8843;48.838;9.324;2022-08-19T06:34:07;20.13;;;16.03;;
17451;SDS011;8843;48.838;9.324;2022-08-19T06:36:35;19.43;;;15.80;;
17451;SDS011;8843;48.838;9.324;2022-08-19T06:39:04;20.57;;;16.93;;
17451;SDS011;8843;48.838;9.324;2022-08-19T06:41:34;20.17;;;14.73;;
17451;SDS011;8843;48.838;9.324;2022-08-19T06:44:03;21.27;;;15.83;;
17451;SDS011;8843;48.838;9.324;2022-08-19T06:46:31;21.03;;;16.27;;
17451;SDS011;8843;48.838;9.324;2022-08-19T06:48:58;19.33;;;14.80;;
17451;SDS011;8843;48.838;9.324;2022-08-19T06:51:25;23.87;;;16.53;;
17451;SDS011;8843;48.838;9.324;2022-08-19T06:53:53;20.40;;;16.63;;
17451;SDS011;8843;48.838;9.324;2022-08-19T06:56:22;21.47;;;16.87;;
17451;SDS011;8843;48.838;9.324;2022-08-19T06:58:56;17.80;;;15.93;;
17451;SDS011;8843;48.838;9.324;2022-08-19T07:01:25;18.67;;;16.23;;
17451;SDS011;8843;48.838;9.324;2022-08-19T07:03:52;20.57;;;16.23;;
17451;SDS011;8843;48.838;9.324;2022-08-19T07:06:19;19.77;;;16.57;;
17451;SDS011;8843;48.838;9.324;2022-08-19T07:08:46;18.60;;;15.97;;
17451;SDS011;8843;48.838;9.324;2022-08-19T07:11:15;21.83;;;16.53;;
17451;SDS011;8843;48.838;9.324;2022-08-19T07:13:44;18.67;;;16.43;;
17451;SDS011;8843;48.838;9.324;2022-08-19T07:16:12;20.93;;;17.03;;
17451;SDS011;8843;48.838;9.324;2022-08-19T07:18:43;22.17;;;17.60;;
17451;SDS011;8843;48.838;9.324;2022-08-19T07:21:11;23.80;;;18.77;;
17451;SDS011;8843;48.838;9.324;2022-08-19T07:23:40;19.33;;;16.63;;
17451;SDS011;8843;48.838;9.324;2022-08-19T07:26:08;21.40;;;17.83;;
17451;SDS011;8843;48.838;9.324;2022-08-19T07:28:36;22.07;;;17.30;;
17451;SDS011;8843;48.838;9.324;2022-08-19T07:31:04;20.97;;;17.07;;
17451;SDS011;8843;48.838;9.324;2022-08-19T07:33:32;18.87;;;16.83;;
17451;SDS011;8843;48.838;9.324;2022-08-19T07:36:03;24.33;;;16.80;;
17451;SDS011;8843;48.838;9.324;2022-08-19T07:38:33;21.77;;;16.87;;
17451;SDS011;8843;48.838;9.324;2022-08-19T07:41:00;21.03;;;18.23;;
17451;SDS011;8843;48.838;9.324;2022-08-19T07:43:27;19.03;;;16.20;;
17451;SDS011;8843;48.838;9.324;2022-08-19T07:45:55;22.13;;;17.47;;
17451;SDS011;8843;48.838;9.324;2022-08-19T07:48:22;18.13;;;15.60;;
17451;SDS011;8843;48.838;9.324;2022-08-19T07:50:51;17.83;;;15.90;;
17451;SDS011;8843;48.838;9.324;2022-08-19T07:53:20;19.13;;;16.27;;
17451;SDS011;8843;48.838;9.324;2022-08-19T07:55:50;18.40;;;16.13;;
17451;SDS011;8843;48.838;9.324;2022-08-19T07:58:29;20.47;;;16.93;;
17451;SDS011;8843;48.838;9.324;2022-08-19T08:00:57;21.80;;;16.23;;
17451;SDS011;8843;48.838;9.324;2022-08-19T08:03:25;18.13;;;14.77;;
17451;SDS011;8843;48.838;9.324;2022-08-19T08:06:07;16.87;;;14.13;;
17451;SDS011;8843;48.838;9.324;2022-08-19T08:08:52;16.37;;;14.13;;
17451;SDS011;8843;48.838;9.324;2022-08-19T08:11:37;19.20;;;14.30;;
17451;SDS011;8843;48.838;9.324;2022-08-19T08:14:05;14.83;;;12.97;;
17451;SDS011;8843;48.838;9.324;2022-08-19T08:16:33;16.97;;;14.37;;
17451;SDS011;8843;48.838;9.324;2022-08-19T08:19:03;17.67;;;14.57;;
17451;SDS011;8843;48.838;9.324;2022-08-19T08:21:31;17.63;;;13.80;;
17451;SDS011;8843;48.838;9.324;2022-08-19T08:24:00;16.07;;;14.17;;
17451;SDS011;8843;48.838;9.324;2022-08-19T08:26:27;16.73;;;13.97;;
17451;SDS011;8843;48.838;9.324;2022-08-19T08:28:54;16.50;;;13.73;;
17451;SDS011;8843;48.838;9.324;2022-08-19T08:31:21;17.03;;;14.00;;
17451;SDS011;8843;48.838;9.324;2022-08-19T08:33:48;19.90;;;13.77;;
17451;SDS011;8843;48.838;9.324;2022-08-19T08:36:15;15.80;;;14.10;;
17451;SDS011;8843;48.838;9.324;2022-08-19T08:38:43;16.13;;;14.10;;
17451;SDS011;8843;48.838;9.324;2022-08-19T08:41:14;17.97;;;15.60;;
17451;SDS011;8843;48.838;9.324;2022-08-19T08:43:48;17.27;;;14.83;;
17451;SDS011;8843;48.838;9.324;2022-08-19T08:46:18;16.70;;;14.37;;
17451;SDS011;8843;48.838;9.324;2022-08-19T08:48:49;16.07;;;13.93;;
17451;SDS011;8843;48.838;9.324;2022-08-19T08:51:20;18.93;;;14.03;;
17451;SDS011;8843;48.838;9.324;2022-08-19T08:53:52;19.70;;;15.17;;
17451;SDS011;8843;48.838;9.324;2022-08-19T08:56:23;16.73;;;15.00;;
17451;SDS011;8843;48.838;9.324;2022-08-19T08:58:51;17.57;;;14.23;;
17451;SDS011;8843;48.838;9.324;2022-08-19T09:01:23;18.67;;;15.30;;
17451;SDS011;8843;48.838;9.324;2022-08-19T09:03:50;16.67;;;14.47;;
17451;SDS011;8843;48.838;9.324;2022-08-19T09:06:18;19.67;;;15.30;;
17451;SDS011;8843;48.838;9.324;2022-08-19T09:08:54;17.17;;;15.30;;
17451;SDS011;8843;48.838;9.324;2022-08-19T09:11:31;15.87;;;13.40;;
17451;SDS011;8843;48.838;9.324;2022-08-19T09:14:11;15.87;;;13.77;;
17451;SDS011;8843;48.838;9.324;2022-08-19T09:16:47;16.23;;;14.50;;
17451;SDS011;8843;48.838;9.324;2022-08-19T09:19:14;17.00;;;14.97;;
17451;SDS011;8843;48.838;9.324;2022-08-19T09:21:42;17.57;;;14.73;;
17451;SDS011;8843;48.838;9.324;2022-08-19T09:24:10;18.77;;;15.60;;
17451;SDS011;8843;48.838;9.324;2022-08-19T09:26:38;15.87;;;14.17;;
17451;SDS011;8843;48.838;9.324;2022-08-19T09:29:05;16.77;;;14.57;;
17451;SDS011;8843;48.838;9.324;2022-08-19T09:31:33;17.57;;;13.63;;
17451;SDS011;8843;48.838;9.324;2022-08-19T09:34:00;17.13;;;14.23;;
17451;SDS011;8843;48.838;9.324;2022-08-19T09:36:29;17.57;;;14.90;;
17451;SDS011;8843;48.838;9.324;2022-08-19T09:38:58;17.73;;;15.87;;
17451;SDS011;8843;48.838;9.324;2022-08-19T09:41:26;18.80;;;14.20;;
17451;SDS011;8843;48.838;9.324;2022-08-19T09:43:55;22.27;;;15.80;;
17451;SDS011;8843;48.838;9.324;2022-08-19T09:46:24;19.63;;;15.53;;
17451;SDS011;8843;48.838;9.324;2022-08-19T09:48:52;18.97;;;15.43;;
17451;SDS011;8843;48.838;9.324;2022-08-19T09:51:23;16.40;;;14.60;;
17451;SDS011;8843;48.838;9.324;2022-08-19T09:53:53;17.80;;;14.97;;
17451;SDS011;8843;48.838;9.324;2022-08-19T09:56:24;21.37;;;15.90;;
17451;SDS011;8843;48.838;9.324;2022-08-19T09:58:51;18.80;;;15.63;;
17451;SDS011;8843;48.838;9.324;2022-08-19T10:01:21;17.77;;;14.80;;
17451;SDS011;8843;48.838;9.324;2022-08-19T10:03:49;23.60;;;16.40;;
17451;SDS011;8843;48.838;9.324;2022-08-19T10:06:18;18.90;;;15.00;;
17451;SDS011;8843;48.838;9.324;2022-08-19T10:08:46;20.47;;;16.30;;
17451;SDS011;8843;48.838;9.324;2022-08-19T10:11:13;19.20;;;16.27;;
17451;SDS011;8843;48.838;9.324;2022-08-19T10:13:42;20.40;;;15.97;;
17451;SDS011;8843;48.838;9.324;2022-08-19T10:16:10;20.80;;;15.93;;
17451;SDS011;8843;48.838;9.324;2022-08-19T10:18:41;21.00;;;15.93;;
17451;SDS011;8843;48.838;9.324;2022-08-19T10:21:09;21.23;;;17.27;;
17451;SDS011;8843;48.838;9.324;2022-08-19T10:23:39;19.93;;;16.83;;
17451;SDS011;8843;48.838;9.324;2022-08-19T10:26:08;19.57;;;16.63;;
17451;SDS011;8843;48.838;9.324;2022-08-19T10:28:36;20.60;;;17.17;;
17451;SDS011;8843;48.838;9.324;2022-08-19T10:31:04;18.70;;;15.10;;
17451;SDS011;8843;48.838;9.324;2022-08-19T10:33:32;20.43;;;16.20;;
17451;SDS011;8843;48.838;9.324;2022-08-19T10:36:01;18.17;;;15.13;;
17451;SDS011;8843;48.838;9.324;2022-08-19T10:38:30;18.30;;;15.63;;
17451;SDS011;8843;48.838;9.324;2022-08-19T10:40:57;18.73;;;14.83;;
17451;SDS011;8843;48.838;9.324;2022-08-19T10:43:24;20.63;;;16.93;;
17451;SDS011;8843;48.838;9.324;2022-08-19T10:45:54;17.73;;;15.60;;
17451;SDS011;8843;48.838;9.324;2022-08-19T10:48:24;19.03;;;15.87;;
17451;SDS011;8843;48.838;9.324;2022-08-19T10:50:51;20.73;;;16.30;;
17451;SDS011;8843;48.838;9.324;2022-08-19T10:53:37;20.13;;;16.23;;
17451;SDS011;8843;48.838;9.324;2022-08-19T10:56:04;17.77;;;15.93;;
17451;SDS011;8843;48.838;9.324;2022-08-19T10:58:49;23.07;;;16.70;;
17451;SDS011;8843;48.838;9.324;2022-08-19T11:01:16;18.33;;;15.97;;
17451;SDS011;8843;48.838;9.324;2022-08-19T11:03:43;18.40;;;16.23;;
17451;SDS011;8843;48.838;9.324;2022-08-19T11:06:11;19.63;;;16.73;;
17451;SDS011;8843;48.838;9.324;2022-08-19T11:08:39;17.53;;;15.37;;
17451;SDS011;8843;48.838;9.324;2022-08-19T11:11:07;18.37;;;16.50;;
17451;SDS011;8843;48.838;9.324;2022-08-19T11:13:34;19.83;;;16.10;;
17451;SDS011;8843;48.838;9.324;2022-08-19T11:16:05;18.20;;;15.00;;
17451;SDS011;8843;48.838;9.324;2022-08-19T11:18:34;19.60;;;16.23;;
17451;SDS011;8843;48.838;9.324;2022-08-19T11:21:06;22.73;;;16.70;;
17451;SDS011;8843;48.838;9.324;2022-08-19T11:23:35;21.73;;;17.30;;
17451;SDS011;8843;48.838;9.324;2022-08-19T11:26:03;20.83;;;17.37;;
17451;SDS011;8843;48.838;9.324;2022-08-19T11:28:30;24.10;;;19.63;;
17451;SDS011;8843;48.838;9.324;2022-08-19T11:30:57;22.90;;;17.67;;
17451;SDS011;8843;48.838;9.324;2022-08-19T11:33:24;23.77;;;18.13;;
17451;SDS011;8843;48.838;9.324;2022-08-19T11:35:52;24.07;;;19.00;;
17451;SDS011;8843;48.838;9.324;2022-08-19T11:38:19;19.57;;;15.33;;
17451;SDS011;8843;48.838;9.324;2022-08-19T11:40:53;19.87;;;17.10;;
17451;SDS011;8843;48.838;9.324;2022-08-19T11:43:25;21.63;;;17.63;;
17451;SDS011;8843;48.838;9.324;2022-08-19T11:45:53;19.20;;;17.10;;
17451;SDS011;8843;48.838;9.324;2022-08-19T11:48:21;22.93;;;17.90;;
17451;SDS011;8843;48.838;9.324;2022-08-19T11:50:48;24.77;;;18.50;;
17451;SDS011;8843;48.838;9.324;2022-08-19T11:53:16;19.83;;;15.20;;
17451;SDS011;8843;48.838;9.324;2022-08-19T11:55:45;19.47;;;17.37;;
17451;SDS011;8843;48.838;9.324;2022-08-19T11:58:13;20.83;;;18.43;;
17451;SDS011;8843;48.838;9.324;2022-08-19T12:00:43;18.33;;;14.83;;
17451;SDS011;8843;48.838;9.324;2022-08-19T12:03:11;20.80;;;17.67;;
17451;SDS011;8843;48.838;9.324;2022-08-19T12:05:39;20.80;;;17.20;;
17451;SDS011;8843;48.838;9.324;2022-08-19T12:08:07;18.93;;;16.13;;
17451;SDS011;8843;48.838;9.324;2022-08-19T12:10:34;20.17;;;16.87;;
17451;SDS011;8843;48.838;9.324;2022-08-19T12:13:02;21.43;;;17.63;;
17451;SDS011;8843;48.838;9.324;2022-08-19T12:15:29;20.67;;;16.40;;
17451;SDS011;8843;48.838;9.324;2022-08-19T12:17:57;20.93;;;17.37;;
17451;SDS011;8843;48.838;9.324;2022-08-19T12:20:24;21.43;;;17.97;;
17451;SDS011;8843;48.838;9.324;2022-08-19T12:22:51;17.97;;;16.07;;
17451;SDS011;8843;48.838;9.324;2022-08-19T12:25:18;18.13;;;15.33;;
17451;SDS011;8843;48.838;9.324;2022-08-19T12:27:46;18.60;;;16.60;;
17451;SDS011;8843;48.838;9.324;2022-08-19T12:30:14;20.50;;;15.10;;
17451;SDS011;8843;48.838;9.324;2022-08-19T12:32:41;20.53;;;16.20;;
17451;SDS011;8843;48.838;9.324;2022-08-19T12:35:10;18.27;;;16.07;;
17451;SDS011;8843;48.838;9.324;2022-08-19T12:37:37;19.37;;;16.57;;
17451;SDS011;8843;48.838;9.324;2022-08-19T12:40:07;19.30;;;16.57;;
17451;SDS011;8843;48.838;9.324;2022-08-19T12:42:36;20.33;;;16.50;;
17451;SDS011;8843;48.838;9.324;2022-08-19T12:45:07;20.17;;;17.03;;
17451;SDS011;8843;48.838;9.324;2022-08-19T12:47:35;20.87;;;16.30;;
17451;SDS011;8843;48.838;9.324;2022-08-19T12:50:03;20.37;;;18.10;;
17451;SDS011;8843;48.838;9.324;2022-08-19T12:52:35;22.83;;;17.67;;
17451;SDS011;8843;48.838;9.324;2022-08-19T12:55:03;23.23;;;17.97;;
17451;SDS011;8843;48.838;9.324;2022-08-19T12:57:31;20.57;;;16.70;;
17451;SDS011;8843;48.838;9.324;2022-08-19T13:00:03;20.53;;;17.10;;
17451;SDS011;8843;48.838;9.324;2022-08-19T13:02:34;22.50;;;16.87;;
17451;SDS011;8843;48.838;9.324;2022-08-19T13:05:01;21.10;;;18.33;;
17451;SDS011;8843;48.838;9.324;2022-08-19T13:07:28;22.73;;;18.03;;
17451;SDS011;8843;48.838;9.324;2022-08-19T13:09:58;22.83;;;18.77;;
17451;SDS011;8843;48.838;9.324;2022-08-19T13:12:25;20.50;;;17.50;;
17451;SDS011;8843;48.838;9.324;2022-08-19T13:14:52;21.27;;;17.10;;
17451;SDS011;8843;48.838;9.324;2022-08-19T13:17:19;24.17;;;18.90;;
17451;SDS011;8843;48.838;9.324;2022-08-19T13:19:47;21.83;;;18.23;;
17451;SDS011;8843;48.838;9.324;2022-08-19T13:22:14;24.07;;;18.30;;
17451;SDS011;8843;48.838;9.324;2022-08-19T13:24:41;21.77;;;17.67;;
17451;SDS011;8843;48.838;9.324;2022-08-19T13:27:09;20.60;;;16.50;;
17451;SDS011;8843;48.838;9.324;2022-08-19T13:29:36;19.27;;;17.20;;
17451;SDS011;8843;48.838;9.324;2022-08-19T13:32:20;24.07;;;18.47;;
17451;SDS011;8843;48.838;9.324;2022-08-19T13:35:04;24.43;;;19.07;;
17451;SDS011;8843;48.838;9.324;2022-08-19T13:37:32;23.13;;;18.17;;
17451;SDS011;8843;48.838;9.324;2022-08-19T13:40:08;21.40;;;18.23;;
17451;SDS011;8843;48.838;9.324;2022-08-19T13:42:39;21.93;;;17.40;;
17451;SDS011;8843;48.838;9.324;2022-08-19T13:45:06;20.40;;;17.17;;
17451;SDS011;8843;48.838;9.324;2022-08-19T13:47:34;21.37;;;18.70;;
17451;SDS011;8843;48.838;9.324;2022-08-19T13:50:08;20.87;;;16.93;;
17451;SDS011;8843;48.838;9.324;2022-08-19T13:52:36;19.43;;;17.27;;
17451;SDS011;8843;48.838;9.324;2022-08-19T13:55:04;22.17;;;17.17;;
17451;SDS011;8843;48.838;9.324;2022-08-19T13:57:32;20.77;;;17.50;;
17451;SDS011;8843;48.838;9.324;2022-08-19T14:00:00;17.87;;;15.87;;
17451;SDS011;8843;48.838;9.324;2022-08-19T14:02:29;18.00;;;15.93;;
17451;SDS011;8843;48.838;9.324;2022-08-19T14:04:56;18.27;;;15.33;;
17451;SDS011;8843;48.838;9.324;2022-08-19T14:07:24;21.90;;;18.47;;
17451;SDS011;8843;48.838;9.324;2022-08-19T14:09:51;16.20;;;14.13;;
17451;SDS011;8843;48.838;9.324;2022-08-19T14:12:18;15.87;;;14.20;;
17451;SDS011;8843;48.838;9.324;2022-08-19T14:14:46;18.77;;;16.27;;
17451;SDS011;8843;48.838;9.324;2022-08-19T14:17:15;19.80;;;16.90;;
17451;SDS011;8843;48.838;9.324;2022-08-19T14:19:42;20.90;;;17.47;;
17451;SDS011;8843;48.838;9.324;2022-08-19T14:22:09;20.73;;;16.03;;
17451;SDS011;8843;48.838;9.324;2022-08-19T14:24:36;19.40;;;17.33;;
17451;SDS011;8843;48.838;9.324;2022-08-19T14:27:05;17.50;;;15.67;;
17451;SDS011;8843;48.838;9.324;2022-08-19T14:29:32;21.13;;;17.70;;
17451;SDS011;8843;48.838;9.324;2022-08-19T14:32:00;21.27;;;17.33;;
17451;SDS011;8843;48.838;9.324;2022-08-19T14:34:28;19.47;;;16.33;;
17451;SDS011;8843;48.838;9.324;2022-08-19T14:36:56;16.93;;;15.13;;
17451;SDS011;8843;48.838;9.324;2022-08-19T14:39:23;19.43;;;17.27;;
17451;SDS011;8843;48.838;9.324;2022-08-19T14:41:50;19.13;;;15.13;;
17451;SDS011;8843;48.838;9.324;2022-08-19T14:44:17;18.97;;;16.67;;
17451;SDS011;8843;48.838;9.324;2022-08-19T14:46:44;19.03;;;17.13;;